createdAt,value
2023-02-18T00:03:12.935Z,10.10
2023-02-18T00:08:15.505Z,10.17
2023-02-18T00:13:17.806Z,10.06
2023-02-18T00:18:20.279Z,10.09
2023-02-18T00:23:22.863Z,10.06
2023-02-18T00:28:25.192Z,9.98
2023-02-18T00:33:27.573Z,9.95
2023-02-18T00:38:29.887Z,9.90
2023-02-18T00:43:32.242Z,9.90
2023-02-18T00:48:34.611Z,9.73
2023-02-18T00:53:37.206Z,9.77
2023-02-18T00:58:39.688Z,9.82
2023-02-18T01:03:41.959Z,9.92
2023-02-18T01:08:44.332Z,9.96
2023-02-18T01:13:46.683Z,10.01
2023-02-18T01:18:49.064Z,10.08
2023-02-18T01:23:51.362Z,10.07
2023-02-18T01:28:53.710Z,9.93
2023-02-18T01:33:56.096Z,9.77
2023-02-18T01:38:58.445Z,9.62
2023-02-18T01:44:01.880Z,9.50
2023-02-18T01:49:04.264Z,9.46
2023-02-18T01:54:06.553Z,9.36
2023-02-18T01:59:08.963Z,9.30
2023-02-18T02:04:11.324Z,9.37
2023-02-18T02:09:13.720Z,9.44
2023-02-18T02:14:15.990Z,9.44
2023-02-18T02:19:18.892Z,9.37
2023-02-18T02:24:21.259Z,9.44
2023-02-18T02:29:23.669Z,9.42
2023-02-18T02:34:26.171Z,9.54
2023-02-18T02:39:28.473Z,9.62
2023-02-18T02:44:30.736Z,9.72
2023-02-18T02:49:33.121Z,9.86
2023-02-18T02:54:35.638Z,9.91
2023-02-18T02:59:37.898Z,9.90
2023-02-18T03:04:40.187Z,9.85
2023-02-18T03:09:42.454Z,9.89
2023-02-18T03:14:44.736Z,9.94
2023-02-18T03:19:47.073Z,10.01
2023-02-18T03:24:49.335Z,10.02
2023-02-18T03:29:51.617Z,10.07
2023-02-18T03:34:53.960Z,10.05
2023-02-18T03:39:56.387Z,10.10
2023-02-18T03:44:59.185Z,10.11
2023-02-18T03:50:01.466Z,10.13
2023-02-18T03:55:03.986Z,10.08
2023-02-18T04:00:06.729Z,10.07
2023-02-18T04:05:09.119Z,10.14
2023-02-18T04:10:11.591Z,10.07
2023-02-18T04:15:13.990Z,10.00
2023-02-18T04:20:16.575Z,9.85
2023-02-18T04:25:18.852Z,9.72
2023-02-18T04:30:21.484Z,9.66
2023-02-18T04:35:23.894Z,9.65
2023-02-18T04:40:29.916Z,9.77
2023-02-18T04:45:32.317Z,9.73
2023-02-18T04:50:34.701Z,9.77
2023-02-18T04:55:37.013Z,9.68
2023-02-18T05:00:39.348Z,9.72
2023-02-18T05:05:42.267Z,9.82
2023-02-18T05:10:44.630Z,9.81
2023-02-18T05:15:46.976Z,9.77
2023-02-18T05:20:49.298Z,9.75
2023-02-18T05:25:51.582Z,9.69
2023-02-18T05:30:53.973Z,9.62
2023-02-18T05:35:56.299Z,9.66
2023-02-18T05:40:58.629Z,9.74
2023-02-18T05:46:01.234Z,9.73
2023-02-18T05:51:03.550Z,9.68
2023-02-18T05:56:05.932Z,9.58
2023-02-18T06:01:08.407Z,9.54
2023-02-18T06:06:11.082Z,9.65
2023-02-18T06:11:13.825Z,9.78
2023-02-18T06:16:16.211Z,9.83
2023-02-18T06:21:18.716Z,9.88
2023-02-18T06:26:21.066Z,9.97
2023-02-18T06:31:23.739Z,9.97
2023-02-18T06:36:26.394Z,10.03
2023-02-18T06:41:28.703Z,10.05
2023-02-18T06:46:31.025Z,9.98
2023-02-18T06:51:33.555Z,10.01
2023-02-18T06:56:35.880Z,10.03
2023-02-18T07:01:38.169Z,9.99
2023-02-18T07:06:40.484Z,10.02
2023-02-18T07:11:42.811Z,10.26
2023-02-18T07:16:45.159Z,10.36
2023-02-18T07:21:47.473Z,10.60
2023-02-18T07:26:49.767Z,10.69
2023-02-18T07:31:52.114Z,10.83
2023-02-18T07:36:54.474Z,10.87
2023-02-18T07:41:56.758Z,10.83
2023-02-18T07:46:59.787Z,10.96
2023-02-18T07:52:03.388Z,11.14
2023-02-18T07:57:07.781Z,11.36
2023-02-18T08:02:10.197Z,11.28
2023-02-18T08:07:12.543Z,11.23
2023-02-18T08:12:14.963Z,11.16
2023-02-18T08:17:17.990Z,11.03
2023-02-18T08:22:20.329Z,10.90
2023-02-18T08:27:22.620Z,11.03
2023-02-18T08:32:24.874Z,11.16
2023-02-18T08:37:27.276Z,11.26
2023-02-18T08:42:29.571Z,11.15
2023-02-18T08:48:17.564Z,11.22
2023-02-18T08:52:54.164Z,11.15
2023-02-18T08:57:56.490Z,10.93
2023-02-18T09:02:58.802Z,10.87
2023-02-18T09:08:01.065Z,11.05
2023-02-18T09:13:03.352Z,11.18
2023-02-18T09:18:05.617Z,11.21
2023-02-18T09:23:07.897Z,11.40
2023-02-18T09:28:10.206Z,11.75
2023-02-18T09:33:12.505Z,11.66
2023-02-18T09:38:15.059Z,11.57
2023-02-18T09:43:17.359Z,11.58
2023-02-18T09:48:19.941Z,11.82
2023-02-18T09:53:22.318Z,11.93
2023-02-18T09:58:24.919Z,12.28
2023-02-18T10:03:27.318Z,12.61
2023-02-18T10:08:29.871Z,12.81
2023-02-18T10:13:32.337Z,12.94
2023-02-18T10:18:34.670Z,12.95
2023-02-18T10:23:37.055Z,12.71
2023-02-18T10:28:39.410Z,12.74
2023-02-18T10:33:41.842Z,12.91
2023-02-18T10:38:44.292Z,13.01
2023-02-18T10:43:46.636Z,13.14
2023-02-18T10:48:48.935Z,13.32
2023-02-18T10:53:51.278Z,13.25
2023-02-18T10:58:54.664Z,13.56
2023-02-18T11:03:57.301Z,13.65
2023-02-18T11:09:02.940Z,13.92
2023-02-18T11:14:05.310Z,14.18
2023-02-18T11:19:07.696Z,14.24
2023-02-18T11:24:09.985Z,14.66
2023-02-18T11:29:12.517Z,14.86
2023-02-18T11:34:14.958Z,14.60
2023-02-18T11:39:17.387Z,15.03
2023-02-18T11:44:19.871Z,14.76
2023-02-18T11:49:22.443Z,14.37
2023-02-18T11:54:24.884Z,14.43
2023-02-18T11:59:27.215Z,14.56
2023-02-18T12:04:29.534Z,14.71
2023-02-18T12:09:32.119Z,14.55
2023-02-18T12:14:34.764Z,14.67
2023-02-18T12:19:37.575Z,14.83
2023-02-18T12:24:40.086Z,14.64
2023-02-18T12:29:42.527Z,14.91
2023-02-18T12:34:45.000Z,14.67
2023-02-18T12:39:47.372Z,14.46
2023-02-18T12:44:49.802Z,14.46
2023-02-18T12:49:52.150Z,14.24
2023-02-18T12:54:54.640Z,14.10
2023-02-18T12:59:57.018Z,14.32
2023-02-18T13:04:59.352Z,14.64
2023-02-18T13:10:01.800Z,14.34
2023-02-18T13:15:04.218Z,14.60
2023-02-18T13:20:07.665Z,14.51
2023-02-18T13:25:10.172Z,14.21
2023-02-18T13:30:12.537Z,14.14
2023-02-18T13:35:15.036Z,14.19
2023-02-18T13:40:17.416Z,14.02
2023-02-18T13:45:20.118Z,13.96
2023-02-18T13:50:22.424Z,14.13
2023-02-18T13:55:24.710Z,14.01
2023-02-18T14:00:27.006Z,13.69
2023-02-18T14:05:29.658Z,13.85
2023-02-18T14:10:32.038Z,13.87
2023-02-18T14:15:35.389Z,13.85
2023-02-18T14:20:37.767Z,13.60
2023-02-18T14:25:40.295Z,13.64
2023-02-18T14:30:42.701Z,13.30
2023-02-18T14:35:44.997Z,13.28
2023-02-18T14:40:47.582Z,13.12
2023-02-18T14:45:50.137Z,13.09
2023-02-18T14:50:52.941Z,13.28
2023-02-18T14:55:55.447Z,13.08
2023-02-18T15:00:57.863Z,13.09
2023-02-18T15:06:00.836Z,12.95
2023-02-18T15:11:03.456Z,13.00
2023-02-18T15:16:05.945Z,12.95
2023-02-18T15:21:08.799Z,12.86
2023-02-18T15:26:11.794Z,12.88
2023-02-18T15:31:15.624Z,12.83
2023-02-18T15:36:18.144Z,12.64
2023-02-18T15:41:20.658Z,12.65
2023-02-18T15:46:24.072Z,12.54
2023-02-18T15:51:26.679Z,12.41
2023-02-18T15:56:29.102Z,12.32
2023-02-18T16:01:31.472Z,12.22
2023-02-18T16:06:34.010Z,12.17
2023-02-18T16:11:36.874Z,12.12
2023-02-18T16:16:41.028Z,12.03
2023-02-18T16:21:43.427Z,11.94
2023-02-18T16:26:46.053Z,11.85
2023-02-18T16:31:48.623Z,11.74
2023-02-18T16:37:08.868Z,11.70
2023-02-18T16:42:11.573Z,11.63
2023-02-18T16:47:13.964Z,11.57
2023-02-18T16:52:17.061Z,11.48
2023-02-18T16:57:19.516Z,11.46
2023-02-18T17:02:21.890Z,11.40
2023-02-18T17:07:24.365Z,11.43
2023-02-18T17:12:26.845Z,11.36
2023-02-18T17:17:29.198Z,11.38
2023-02-18T17:22:31.568Z,11.37
2023-02-18T17:27:33.887Z,11.35
2023-02-18T17:32:36.282Z,11.32
2023-02-18T17:37:39.984Z,11.30
2023-02-18T17:42:42.558Z,11.29
2023-02-18T17:47:45.147Z,11.32
2023-02-18T17:52:47.473Z,11.31
2023-02-18T17:57:49.848Z,11.25
2023-02-18T18:02:52.178Z,11.17
2023-02-18T18:07:54.597Z,11.14
2023-02-18T18:12:57.223Z,11.09
2023-02-18T18:17:59.588Z,11.10
2023-02-18T18:23:01.937Z,11.04
2023-02-18T18:28:04.370Z,11.03
2023-02-18T18:33:06.762Z,11.08
2023-02-18T18:38:09.184Z,11.01
2023-02-18T18:43:11.632Z,10.97
2023-02-18T18:48:14.115Z,10.95
2023-02-18T18:53:16.504Z,10.91
2023-02-18T18:58:20.989Z,10.83
2023-02-18T19:03:23.353Z,10.94
2023-02-18T19:08:25.683Z,10.96
2023-02-18T19:13:28.048Z,10.90
2023-02-18T19:18:32.390Z,10.90
2023-02-18T19:23:34.872Z,10.88
2023-02-18T19:28:37.250Z,10.87
2023-02-18T19:33:39.665Z,10.80
2023-02-18T19:38:42.068Z,10.91
2023-02-18T19:43:44.742Z,10.98
2023-02-18T19:48:47.035Z,10.95
2023-02-18T19:53:49.430Z,10.95
2023-02-18T19:58:51.812Z,11.01
2023-02-18T20:03:54.522Z,10.98
2023-02-18T20:08:56.919Z,10.99
2023-02-18T20:13:59.476Z,10.98
2023-02-18T20:19:01.941Z,10.96
2023-02-18T20:24:04.306Z,11.00
2023-02-18T20:29:06.633Z,11.28
2023-02-18T20:34:09.854Z,12.17
2023-02-18T20:39:16.261Z,12.41
2023-02-18T20:44:21.084Z,12.16
2023-02-18T20:49:23.527Z,11.59
2023-02-18T20:54:26.426Z,11.17
2023-02-18T20:59:29.800Z,11.16
2023-02-18T21:04:32.643Z,11.04
2023-02-18T21:09:35.195Z,11.07
2023-02-18T21:14:37.843Z,11.06
2023-02-18T21:19:40.326Z,11.03
2023-02-18T21:24:43.115Z,11.10
2023-02-18T21:29:45.617Z,11.08
2023-02-18T21:34:48.187Z,11.03
2023-02-18T21:39:50.689Z,11.03
2023-02-18T21:44:53.002Z,11.04
2023-02-18T21:49:55.402Z,11.00
2023-02-18T21:54:58.045Z,10.97
2023-02-18T22:00:11.363Z,10.96
2023-02-18T22:05:21.445Z,10.95
2023-02-18T22:10:23.962Z,10.87
2023-02-18T22:15:26.370Z,10.86
2023-02-18T22:20:28.849Z,10.78
2023-02-18T22:25:31.153Z,10.76
2023-02-18T22:30:33.614Z,10.73
2023-02-18T22:35:36.049Z,10.66
2023-02-18T22:40:38.358Z,10.63
2023-02-18T22:45:41.191Z,10.62
2023-02-18T22:50:43.563Z,10.57
2023-02-18T22:55:46.130Z,10.61
2023-02-18T23:00:48.993Z,10.54
2023-02-18T23:05:51.368Z,10.56
2023-02-18T23:10:53.692Z,10.42
2023-02-18T23:15:56.340Z,10.41
2023-02-18T23:21:16.321Z,10.45
2023-02-18T23:26:18.699Z,10.45
2023-02-18T23:31:21.185Z,10.35
2023-02-18T23:36:23.707Z,10.28
2023-02-18T23:41:26.128Z,10.33
2023-02-18T23:46:28.565Z,10.23
2023-02-18T23:51:30.874Z,10.22
2023-02-18T23:56:33.213Z,10.19
